Time;durP1;ratioP1;P1;durP2;ratioP2;P2;SDS_P1;SDS_P2;PMS_P1;PMS_P2;Temp;Humidity;BMP_temperature;BMP_pressure;BME280_temperature;BME280_humidity;BME280_pressure;Samples;Min_cycle;Max_cycle;Signal;HPM_P1;HPM_P2
2021/03/05 00:00:07;;;;;;;9.53;5.47;;;;;;;;;;4391506;32;20240;-75
2021/03/05 00:02:32;;;;;;;9.77;5.70;;;;;;;;;;4391252;32;20166;-75
2021/03/05 00:04:57;;;;;;;11.03;5.10;;;;;;;;;;4404997;32;20578;-75
2021/03/05 00:07:22;;;;;;;11.30;5.90;;;;;;;;;;4405601;32;20134;-73
2021/03/05 00:09:48;;;;;;;13.87;6.33;;;;;;;;;;4392443;32;20360;-76
2021/03/05 00:12:13;;;;;;;13.87;6.17;;;;;;;;;;4404949;32;20134;-75
2021/03/05 00:14:38;;;;;;;9.80;5.77;;;;;;;;;;4404731;32;20220;-75
2021/03/05 00:17:04;;;;;;;10.53;5.73;;;;;;;;;;4391319;32;20251;-74
2021/03/05 00:19:29;;;;;;;11.50;5.70;;;;;;;;;;4405343;32;20138;-75
2021/03/05 00:21:54;;;;;;;12.60;6.23;;;;;;;;;;4404941;32;20161;-75
2021/03/05 00:24:20;;;;;;;9.73;5.70;;;;;;;;;;4390932;32;20201;-75
2021/03/05 00:26:45;;;;;;;11.50;6.00;;;;;;;;;;4391029;32;20238;-75
2021/03/05 00:29:10;;;;;;;10.00;6.07;;;;;;;;;;4390836;32;20182;-75
2021/03/05 00:31:35;;;;;;;10.97;5.83;;;;;;;;;;4406006;32;20201;-75
2021/03/05 00:34:01;;;;;;;12.80;5.80;;;;;;;;;;4390823;32;20169;-75
2021/03/05 00:36:26;;;;;;;12.93;7.10;;;;;;;;;;4404787;32;20160;-75
2021/03/05 00:38:51;;;;;;;10.13;6.23;;;;;;;;;;4407795;32;20589;-77
2021/03/05 00:41:16;;;;;;;11.30;6.70;;;;;;;;;;4408294;32;20457;-76
2021/03/05 00:43:41;;;;;;;12.13;6.47;;;;;;;;;;4394546;32;20515;-75
2021/03/05 00:46:07;;;;;;;11.20;5.83;;;;;;;;;;4407604;32;20492;-75
2021/03/05 00:48:32;;;;;;;12.47;6.47;;;;;;;;;;4407998;32;20448;-75
2021/03/05 00:50:57;;;;;;;12.67;6.77;;;;;;;;;;4393803;32;20166;-75
2021/03/05 00:53:22;;;;;;;14.53;6.40;;;;;;;;;;4407929;32;20146;-75
2021/03/05 00:55:47;;;;;;;13.80;6.90;;;;;;;;;;4408553;32;20543;-75
2021/03/05 00:58:13;;;;;;;13.03;6.73;;;;;;;;;;4393599;32;20639;-75
2021/03/05 01:00:38;;;;;;;15.20;8.27;;;;;;;;;;4407976;32;20147;-74
2021/03/05 01:03:03;;;;;;;14.47;7.70;;;;;;;;;;4393428;32;20257;-75
2021/03/05 01:05:29;;;;;;;15.90;7.87;;;;;;;;;;4407682;32;20452;-74
2021/03/05 01:07:54;;;;;;;18.13;7.80;;;;;;;;;;4407175;32;20185;-74
2021/03/05 01:10:19;;;;;;;15.67;7.87;;;;;;;;;;4408094;32;20161;-74
2021/03/05 01:12:51;;;;;;;16.13;8.37;;;;;;;;;;4407355;32;20172;-74
2021/03/05 01:15:17;;;;;;;17.30;8.13;;;;;;;;;;4407719;32;20213;-75
2021/03/05 01:17:42;;;;;;;17.63;8.40;;;;;;;;;;4407525;32;20134;-74
2021/03/05 01:20:11;;;;;;;14.30;7.70;;;;;;;;;;4393793;32;20165;-74
2021/03/05 01:22:42;;;;;;;15.57;8.17;;;;;;;;;;4406993;32;20156;-75
2021/03/05 01:25:08;;;;;;;15.77;7.70;;;;;;;;;;4394686;32;20166;-74
2021/03/05 01:27:34;;;;;;;21.00;9.70;;;;;;;;;;4406812;32;20181;-74
2021/03/05 01:30:00;;;;;;;17.40;8.00;;;;;;;;;;4392414;32;20158;-74
2021/03/05 01:32:25;;;;;;;19.57;8.63;;;;;;;;;;4377892;32;20231;-74
2021/03/05 01:34:50;;;;;;;18.90;8.27;;;;;;;;;;4392343;32;20223;-74
2021/03/05 01:37:15;;;;;;;14.47;7.80;;;;;;;;;;4392373;32;20192;-74
2021/03/05 01:39:40;;;;;;;18.97;7.93;;;;;;;;;;4392195;32;20158;-75
2021/03/05 01:42:06;;;;;;;15.40;7.93;;;;;;;;;;4393276;32;20157;-74
2021/03/05 01:44:31;;;;;;;14.23;8.00;;;;;;;;;;4391947;32;20142;-74
2021/03/05 01:46:56;;;;;;;16.83;8.30;;;;;;;;;;4391407;32;20479;-74
2021/03/05 01:49:22;;;;;;;15.10;8.23;;;;;;;;;;4392075;32;20147;-74
2021/03/05 01:51:47;;;;;;;18.73;8.83;;;;;;;;;;4377850;32;20162;-74
2021/03/05 01:54:12;;;;;;;15.83;8.67;;;;;;;;;;4392092;32;20172;-75
2021/03/05 01:56:41;;;;;;;18.63;8.50;;;;;;;;;;4392064;32;20165;-74
2021/03/05 01:59:08;;;;;;;18.47;8.90;;;;;;;;;;4391552;32;20200;-76
2021/03/05 02:01:34;;;;;;;18.90;8.27;;;;;;;;;;4391916;32;20206;-77
2021/03/05 02:04:00;;;;;;;15.50;8.00;;;;;;;;;;4377643;32;20170;-76
2021/03/05 02:06:25;;;;;;;17.33;8.17;;;;;;;;;;4377572;32;20170;-76
2021/03/05 02:08:50;;;;;;;16.30;8.17;;;;;;;;;;4378200;32;20236;-76
2021/03/05 02:11:17;;;;;;;17.87;7.60;;;;;;;;;;4391506;32;20164;-76
2021/03/05 02:13:42;;;;;;;14.40;7.73;;;;;;;;;;4391697;32;20173;-76
2021/03/05 02:16:13;;;;;;;17.03;7.73;;;;;;;;;;4391631;32;20170;-75
2021/03/05 02:18:57;;;;;;;15.77;8.33;;;;;;;;;;4377391;32;20209;-75
2021/03/05 02:21:52;;;;;;;16.63;7.20;;;;;;;;;;4392673;32;20142;-75
2021/03/05 02:24:31;;;;;;;19.00;7.67;;;;;;;;;;4378329;32;20174;-76
2021/03/05 02:27:15;;;;;;;23.13;7.70;;;;;;;;;;4391861;32;20159;-76
2021/03/05 02:29:43;;;;;;;16.73;8.40;;;;;;;;;;4404408;32;20199;-76
2021/03/05 02:32:18;;;;;;;15.53;7.77;;;;;;;;;;4406179;32;20142;-76
2021/03/05 02:34:46;;;;;;;19.90;8.10;;;;;;;;;;4406478;32;20198;-75
2021/03/05 02:37:12;;;;;;;18.27;8.13;;;;;;;;;;4406060;32;20536;-76
2021/03/05 02:39:46;;;;;;;16.33;8.47;;;;;;;;;;4392986;32;20279;-75
2021/03/05 02:42:18;;;;;;;17.30;8.53;;;;;;;;;;4406465;32;20199;-75
2021/03/05 02:44:44;;;;;;;21.50;9.20;;;;;;;;;;4392338;32;20183;-75
2021/03/05 02:47:10;;;;;;;18.70;8.93;;;;;;;;;;4392044;32;20264;-75
2021/03/05 02:49:38;;;;;;;18.37;8.40;;;;;;;;;;4392018;32;20231;-75
2021/03/05 02:52:08;;;;;;;19.97;8.77;;;;;;;;;;4392418;32;20200;-75
2021/03/05 02:54:36;;;;;;;18.33;8.43;;;;;;;;;;4406435;32;20636;-76
2021/03/05 02:57:01;;;;;;;22.83;8.47;;;;;;;;;;4406023;32;20191;-75
2021/03/05 02:59:27;;;;;;;18.47;7.97;;;;;;;;;;4392161;32;20203;-75
2021/03/05 03:01:54;;;;;;;15.33;7.53;;;;;;;;;;4391685;32;20203;-75
2021/03/05 03:04:20;;;;;;;18.40;7.50;;;;;;;;;;4405984;32;20169;-75
2021/03/05 03:06:45;;;;;;;14.47;6.13;;;;;;;;;;4405589;32;20142;-75
2021/03/05 03:09:12;;;;;;;18.60;7.00;;;;;;;;;;4405586;32;20174;-75
2021/03/05 03:11:39;;;;;;;19.97;5.93;;;;;;;;;;4390237;32;20229;-74
2021/03/05 03:14:04;;;;;;;20.87;5.33;;;;;;;;;;4390988;32;20455;-74
2021/03/05 03:16:30;;;;;;;14.67;5.63;;;;;;;;;;4377733;32;20221;-74
2021/03/05 03:18:56;;;;;;;13.90;5.10;;;;;;;;;;4390476;32;20168;-74
2021/03/05 03:21:21;;;;;;;18.03;4.80;;;;;;;;;;4390367;32;20232;-74
2021/03/05 03:23:46;;;;;;;19.57;4.33;;;;;;;;;;4390378;32;20550;-74
2021/03/05 03:26:12;;;;;;;14.33;4.07;;;;;;;;;;4376256;32;20509;-74
2021/03/05 03:28:37;;;;;;;14.73;4.03;;;;;;;;;;4393329;32;20618;-73
2021/03/05 03:31:03;;;;;;;16.50;4.20;;;;;;;;;;4406094;32;20156;-74
2021/03/05 03:33:29;;;;;;;19.57;4.10;;;;;;;;;;4391386;32;20226;-74
2021/03/05 03:35:54;;;;;;;11.27;3.23;;;;;;;;;;4403725;32;20170;-73
2021/03/05 03:38:19;;;;;;;14.43;3.80;;;;;;;;;;4405631;32;20412;-74
2021/03/05 03:40:44;;;;;;;14.67;3.37;;;;;;;;;;4405515;32;20207;-74
2021/03/05 03:43:10;;;;;;;12.33;3.60;;;;;;;;;;4391400;32;20268;-73
2021/03/05 03:45:36;;;;;;;17.07;3.57;;;;;;;;;;4405386;32;20471;-73
2021/03/05 03:48:03;;;;;;;14.47;3.13;;;;;;;;;;4405534;32;20225;-74
2021/03/05 03:50:31;;;;;;;12.10;3.40;;;;;;;;;;4404775;32;20142;-75
2021/03/05 03:52:57;;;;;;;9.70;2.63;;;;;;;;;;4391839;32;20170;-74
2021/03/05 03:55:22;;;;;;;15.60;3.27;;;;;;;;;;4405575;32;20544;-74
2021/03/05 03:57:49;;;;;;;10.70;3.53;;;;;;;;;;4405471;32;20149;-74
2021/03/05 04:00:16;;;;;;;10.30;3.10;;;;;;;;;;4405751;32;20130;-74
2021/03/05 04:02:44;;;;;;;13.73;2.93;;;;;;;;;;4405397;32;20219;-74
2021/03/05 04:05:10;;;;;;;8.47;3.20;;;;;;;;;;4405280;32;20227;-74
2021/03/05 04:07:36;;;;;;;11.67;2.93;;;;;;;;;;4405378;32;20628;-74
2021/03/05 04:10:02;;;;;;;14.70;2.80;;;;;;;;;;4391015;32;20161;-74
2021/03/05 04:12:28;;;;;;;16.70;3.00;;;;;;;;;;4391290;32;20141;-74
2021/03/05 04:14:54;;;;;;;13.80;3.20;;;;;;;;;;4390306;32;20165;-76
2021/03/05 04:17:19;;;;;;;17.07;2.97;;;;;;;;;;4375915;32;20158;-75
2021/03/05 04:19:45;;;;;;;14.73;3.27;;;;;;;;;;4390108;32;20173;-75
2021/03/05 04:22:11;;;;;;;10.83;2.97;;;;;;;;;;4390292;32;20528;-75
2021/03/05 04:24:36;;;;;;;10.83;2.27;;;;;;;;;;4404971;32;20143;-75
2021/03/05 04:27:08;;;;;;;11.13;3.00;;;;;;;;;;4390760;32;20165;-74
2021/03/05 04:29:33;;;;;;;11.40;2.30;;;;;;;;;;4388687;32;20205;-75
2021/03/05 04:31:58;;;;;;;15.73;3.03;;;;;;;;;;4389540;32;20193;-75
2021/03/05 04:34:24;;;;;;;10.90;2.17;;;;;;;;;;4390927;32;20442;-75
2021/03/05 04:36:55;;;;;;;11.83;2.60;;;;;;;;;;4388385;32;20171;-75
2021/03/05 04:39:21;;;;;;;7.10;2.13;;;;;;;;;;4388166;32;20215;-74
2021/03/05 04:41:46;;;;;;;7.57;2.13;;;;;;;;;;4390473;32;20165;-74
2021/03/05 04:44:12;;;;;;;12.77;2.17;;;;;;;;;;4389943;32;20218;-74
2021/03/05 04:46:37;;;;;;;7.50;2.13;;;;;;;;;;4388493;32;20181;-74
2021/03/05 04:49:03;;;;;;;15.33;2.47;;;;;;;;;;4390770;32;20134;-74
2021/03/05 04:51:28;;;;;;;16.97;2.40;;;;;;;;;;4389452;32;20157;-74
2021/03/05 04:53:53;;;;;;;14.20;3.00;;;;;;;;;;4390070;32;20533;-74
2021/03/05 04:56:19;;;;;;;14.47;2.37;;;;;;;;;;4388251;32;20171;-75
2021/03/05 04:58:44;;;;;;;11.67;2.27;;;;;;;;;;4389931;32;20454;-75
2021/03/05 05:01:09;;;;;;;9.70;2.10;;;;;;;;;;4390070;32;20130;-75
2021/03/05 05:03:34;;;;;;;9.70;2.27;;;;;;;;;;4389690;32;20146;-74
2021/03/05 05:05:59;;;;;;;9.70;2.37;;;;;;;;;;4379883;32;20669;-73
2021/03/05 05:08:25;;;;;;;11.67;2.23;;;;;;;;;;4386658;32;20493;-74
2021/03/05 05:10:50;;;;;;;9.77;1.70;;;;;;;;;;4388871;32;20612;-75
2021/03/05 05:13:15;;;;;;;7.93;2.27;;;;;;;;;;4391285;32;20139;-74
2021/03/05 05:15:41;;;;;;;7.57;1.97;;;;;;;;;;4389488;32;20161;-74
2021/03/05 05:18:06;;;;;;;5.83;1.83;;;;;;;;;;4389809;32;20134;-74
2021/03/05 05:20:31;;;;;;;11.97;2.50;;;;;;;;;;4390058;32;20200;-74
2021/03/05 05:22:56;;;;;;;14.33;3.50;;;;;;;;;;4389134;32;20592;-74
2021/03/05 05:25:21;;;;;;;11.17;2.40;;;;;;;;;;4390970;32;20287;-73
2021/03/05 05:27:59;;;;;;;11.57;2.40;;;;;;;;;;4393259;32;20134;-75
2021/03/05 05:30:27;;;;;;;15.80;2.50;;;;;;;;;;4407465;32;20135;-75
2021/03/05 05:32:53;;;;;;;12.40;2.77;;;;;;;;;;4393424;32;20159;-75
2021/03/05 05:35:18;;;;;;;14.07;3.00;;;;;;;;;;4406782;32;20149;-74
2021/03/05 05:37:44;;;;;;;14.23;2.80;;;;;;;;;;4407748;32;20161;-74
2021/03/05 05:40:09;;;;;;;23.90;3.50;;;;;;;;;;4392936;32;20188;-74
2021/03/05 05:42:34;;;;;;;12.23;2.03;;;;;;;;;;4392994;32;20477;-76
2021/03/05 05:45:00;;;;;;;13.00;2.23;;;;;;;;;;4393931;32;20209;-73
2021/03/05 05:47:29;;;;;;;9.57;2.37;;;;;;;;;;4406695;32;20157;-76
2021/03/05 05:49:56;;;;;;;10.10;2.40;;;;;;;;;;4407613;32;20217;-74
2021/03/05 05:52:25;;;;;;;12.77;2.50;;;;;;;;;;4406504;32;20140;-75
2021/03/05 05:54:52;;;;;;;14.20;2.40;;;;;;;;;;4407886;32;20237;-75
2021/03/05 05:57:17;;;;;;;8.40;2.23;;;;;;;;;;4406604;32;20197;-73
2021/03/05 05:59:43;;;;;;;10.40;2.30;;;;;;;;;;4407258;32;20157;-74
2021/03/05 06:02:09;;;;;;;11.67;3.07;;;;;;;;;;4406909;32;20486;-74
2021/03/05 06:04:35;;;;;;;8.73;2.03;;;;;;;;;;4406859;32;20138;-74
2021/03/05 06:07:04;;;;;;;12.37;2.40;;;;;;;;;;4392958;32;20269;-74
2021/03/05 06:09:29;;;;;;;14.00;2.20;;;;;;;;;;4407401;32;20134;-74
2021/03/05 06:11:54;;;;;;;9.30;2.67;;;;;;;;;;4407492;32;20165;-74
2021/03/05 06:14:20;;;;;;;12.43;2.50;;;;;;;;;;4406964;32;20138;-74
2021/03/05 06:16:55;;;;;;;10.83;2.20;;;;;;;;;;4407020;32;20188;-75
2021/03/05 06:19:21;;;;;;;8.03;2.00;;;;;;;;;;4407135;32;20609;-75
2021/03/05 06:21:50;;;;;;;12.60;2.27;;;;;;;;;;4406339;32;20511;-76
2021/03/05 06:24:16;;;;;;;10.43;2.30;;;;;;;;;;4392636;32;20611;-73
2021/03/05 06:27:00;;;;;;;15.23;2.37;;;;;;;;;;4402672;32;20158;-74
2021/03/05 06:29:30;;;;;;;13.20;2.33;;;;;;;;;;4377548;32;20304;-74
2021/03/05 06:31:56;;;;;;;9.20;2.30;;;;;;;;;;4377043;32;20258;-74
2021/03/05 06:34:22;;;;;;;9.40;2.30;;;;;;;;;;4390801;32;20477;-74
2021/03/05 06:37:06;;;;;;;14.80;2.50;;;;;;;;;;4377383;32;20157;-75
2021/03/05 06:39:32;;;;;;;14.53;2.63;;;;;;;;;;4390908;32;20177;-75
2021/03/05 06:42:05;;;;;;;11.63;2.40;;;;;;;;;;4392759;32;20170;-74
2021/03/05 06:44:30;;;;;;;13.57;2.90;;;;;;;;;;4405939;32;20170;-76
2021/03/05 06:46:56;;;;;;;17.10;2.70;;;;;;;;;;4407047;32;20142;-76
2021/03/05 06:49:26;;;;;;;14.00;2.73;;;;;;;;;;4406313;32;20148;-74
2021/03/05 06:51:54;;;;;;;12.00;2.67;;;;;;;;;;4391854;32;20228;-71
2021/03/05 06:54:20;;;;;;;13.17;2.87;;;;;;;;;;4405907;32;20143;-74
2021/03/05 06:56:49;;;;;;;11.13;2.50;;;;;;;;;;4406064;32;20180;-75
2021/03/05 06:59:16;;;;;;;13.27;2.60;;;;;;;;;;4405642;32;20142;-75
2021/03/05 07:01:45;;;;;;;14.07;2.60;;;;;;;;;;4405742;32;20621;-71
2021/03/05 07:04:11;;;;;;;12.03;2.37;;;;;;;;;;4392286;32;20236;-74
2021/03/05 07:06:37;;;;;;;13.37;2.43;;;;;;;;;;4405554;32;20138;-73
2021/03/05 07:09:07;;;;;;;17.20;2.43;;;;;;;;;;4405351;32;20142;-74
2021/03/05 07:11:34;;;;;;;10.37;2.50;;;;;;;;;;4405840;32;20169;-74
2021/03/05 07:14:09;;;;;;;12.97;2.50;;;;;;;;;;4404384;32;20229;-76
2021/03/05 07:16:48;;;;;;;11.17;2.50;;;;;;;;;;4403701;32;20228;-77
2021/03/05 07:19:16;;;;;;;16.10;2.67;;;;;;;;;;4393734;32;20513;-75
2021/03/05 07:21:47;;;;;;;9.57;2.40;;;;;;;;;;4390769;32;20250;-76
2021/03/05 07:24:14;;;;;;;11.00;2.30;;;;;;;;;;4405223;32;20157;-76
2021/03/05 07:26:43;;;;;;;11.50;2.67;;;;;;;;;;4404797;32;20148;-75
2021/03/05 07:29:16;;;;;;;11.70;2.57;;;;;;;;;;4403796;32;20645;-75
2021/03/05 07:31:44;;;;;;;10.00;2.70;;;;;;;;;;4391080;32;20597;-76
2021/03/05 07:34:17;;;;;;;10.53;2.43;;;;;;;;;;4404905;32;20138;-74
2021/03/05 07:36:47;;;;;;;12.47;2.30;;;;;;;;;;4404797;32;20444;-74
2021/03/05 07:39:12;;;;;;;9.80;2.47;;;;;;;;;;4405205;32;20201;-74
2021/03/05 07:41:38;;;;;;;10.37;2.47;;;;;;;;;;4405127;32;20531;-74
2021/03/05 07:44:04;;;;;;;12.10;2.80;;;;;;;;;;4391475;32;20170;-74
2021/03/05 07:46:29;;;;;;;8.60;2.43;;;;;;;;;;4405508;32;20199;-75
2021/03/05 07:48:55;;;;;;;10.18;2.50;;;;;;;;;;4404883;32;20133;-75
2021/03/05 07:51:20;;;;;;;10.00;2.43;;;;;;;;;;4405054;32;20162;-76
2021/03/05 07:53:53;;;;;;;3.77;1.93;;;;;;;;;;4402949;32;20196;-70
2021/03/05 07:56:37;;;;;;;8.57;2.60;;;;;;;;;;4390548;32;20165;-75
2021/03/05 07:59:02;;;;;;;10.57;2.57;;;;;;;;;;4390639;32;20180;-75
2021/03/05 08:01:46;;;;;;;8.40;2.13;;;;;;;;;;4404310;32;20165;-70
2021/03/05 08:04:15;;;;;;;11.73;2.70;;;;;;;;;;4404703;32;20205;-75
2021/03/05 08:06:43;;;;;;;11.77;2.73;;;;;;;;;;4390674;32;20165;-76
2021/03/05 08:09:09;;;;;;;9.00;2.50;;;;;;;;;;4405086;32;20142;-73
2021/03/05 08:11:36;;;;;;;7.90;2.37;;;;;;;;;;4404370;32;20146;-75
2021/03/05 08:14:20;;;;;;;7.53;2.00;;;;;;;;;;4404158;32;20145;-74
2021/03/05 08:16:49;;;;;;;10.27;2.53;;;;;;;;;;4390627;32;20258;-75
2021/03/05 08:19:16;;;;;;;9.33;2.43;;;;;;;;;;4402608;32;20564;-75
2021/03/05 08:21:50;;;;;;;10.90;2.27;;;;;;;;;;4403867;32;20181;-74
2021/03/05 08:24:25;;;;;;;8.63;2.30;;;;;;;;;;4390445;32;20191;-73
2021/03/05 08:26:57;;;;;;;9.10;2.33;;;;;;;;;;4404621;32;20187;-74
2021/03/05 08:29:41;;;;;;;6.20;2.20;;;;;;;;;;4404251;32;20164;-75
2021/03/05 08:32:27;;;;;;;8.40;2.30;;;;;;;;;;4404840;32;20142;-75
2021/03/05 08:34:52;;;;;;;10.00;2.83;;;;;;;;;;4404481;32;20176;-74
2021/03/05 08:37:32;;;;;;;8.20;2.80;;;;;;;;;;4391176;32;20204;-74
2021/03/05 08:40:09;;;;;;;8.10;2.40;;;;;;;;;;4403756;32;20167;-74
2021/03/05 08:42:35;;;;;;;6.90;2.30;;;;;;;;;;4403685;32;20187;-74
2021/03/05 08:45:06;;;;;;;8.00;3.50;;;;;;;;;;4403727;32;20178;-75
2021/03/05 08:47:33;;;;;;;6.77;2.50;;;;;;;;;;4404006;32;20193;-74
2021/03/05 08:49:58;;;;;;;9.87;2.40;;;;;;;;;;4390321;32;20225;-75
2021/03/05 08:52:24;;;;;;;6.30;2.30;;;;;;;;;;4404672;32;20131;-76
2021/03/05 08:54:49;;;;;;;9.30;2.30;;;;;;;;;;4404264;32;20177;-76
2021/03/05 08:57:14;;;;;;;10.60;2.10;;;;;;;;;;4390424;32;20594;-75
2021/03/05 08:59:40;;;;;;;6.20;2.23;;;;;;;;;;4391842;32;20283;-75
2021/03/05 09:02:14;;;;;;;7.40;2.10;;;;;;;;;;4407581;32;20161;-75
2021/03/05 09:04:40;;;;;;;6.77;1.67;;;;;;;;;;4408140;32;20168;-74
2021/03/05 09:07:05;;;;;;;5.83;1.97;;;;;;;;;;4406198;32;20141;-75
2021/03/05 09:09:33;;;;;;;6.17;1.67;;;;;;;;;;4393196;32;20260;-76
2021/03/05 09:12:22;;;;;;;7.13;2.17;;;;;;;;;;4406731;32;20201;-74
2021/03/05 09:14:56;;;;;;;13.97;2.43;;;;;;;;;;4393407;32;20166;-75
2021/03/05 09:17:22;;;;;;;3.93;1.43;;;;;;;;;;4392947;32;20234;-74
2021/03/05 09:19:47;;;;;;;8.30;1.90;;;;;;;;;;4405721;32;20502;-75
2021/03/05 09:22:16;;;;;;;3.63;1.20;;;;;;;;;;4402847;32;20173;-75
2021/03/05 09:24:46;;;;;;;9.17;1.43;;;;;;;;;;4395635;32;20198;-74
2021/03/05 09:27:17;;;;;;;4.60;1.00;;;;;;;;;;4396243;32;20232;-75
2021/03/05 09:29:42;;;;;;;3.50;0.90;;;;;;;;;;4397403;32;20200;-75
2021/03/05 09:32:17;;;;;;;5.43;1.20;;;;;;;;;;4392990;32;20595;-71
2021/03/05 09:34:53;;;;;;;5.40;1.03;;;;;;;;;;4377330;32;20165;-72
2021/03/05 09:37:26;;;;;;;3.33;1.13;;;;;;;;;;4390857;32;20232;-72
2021/03/05 09:39:52;;;;;;;2.00;0.77;;;;;;;;;;4389991;32;20205;-75
2021/03/05 09:42:19;;;;;;;2.47;0.97;;;;;;;;;;4377328;32;20162;-75
2021/03/05 09:44:45;;;;;;;3.33;0.90;;;;;;;;;;4395518;32;20154;-75
2021/03/05 09:47:14;;;;;;;1.77;0.70;;;;;;;;;;4406626;32;20161;-74
2021/03/05 09:50:12;;;;;;;5.23;0.80;;;;;;;;;;4392263;32;20192;-75
2021/03/05 09:52:37;;;;;;;3.17;0.60;;;;;;;;;;4406144;32;20163;-75
2021/03/05 09:55:02;;;;;;;3.13;0.80;;;;;;;;;;4392926;32;20210;-75
2021/03/05 09:57:28;;;;;;;8.23;0.70;;;;;;;;;;4406391;32;20146;-74
2021/03/05 09:59:53;;;;;;;5.93;0.90;;;;;;;;;;4392402;32;20154;-75
2021/03/05 10:02:21;;;;;;;2.90;0.70;;;;;;;;;;4392761;32;20166;-74
2021/03/05 10:04:48;;;;;;;1.50;0.60;;;;;;;;;;4392317;32;20166;-75
2021/03/05 10:07:13;;;;;;;3.73;0.77;;;;;;;;;;4392550;32;20587;-74
2021/03/05 10:09:39;;;;;;;4.37;0.90;;;;;;;;;;4406154;32;20192;-76
2021/03/05 10:12:04;;;;;;;4.87;0.80;;;;;;;;;;4391591;32;20586;-75
2021/03/05 10:14:32;;;;;;;6.20;1.10;;;;;;;;;;4392320;32;20505;-76
2021/03/05 10:17:10;;;;;;;6.20;0.90;;;;;;;;;;4392476;32;20162;-76
2021/03/05 10:19:39;;;;;;;4.20;0.70;;;;;;;;;;4392580;32;20184;-76
2021/03/05 10:22:08;;;;;;;2.77;0.83;;;;;;;;;;4391857;32;20163;-76
2021/03/05 10:24:33;;;;;;;3.03;0.87;;;;;;;;;;4392031;32;20165;-73
2021/03/05 10:27:21;;;;;;;2.47;0.70;;;;;;;;;;4403413;32;20657;-73
2021/03/05 10:29:56;;;;;;;1.87;0.83;;;;;;;;;;4394213;32;20170;-75
2021/03/05 10:32:54;;;;;;;3.20;0.70;;;;;;;;;;4377540;32;20684;-75
2021/03/05 10:35:19;;;;;;;1.40;0.70;;;;;;;;;;4375431;32;20654;-74
2021/03/05 10:37:45;;;;;;;1.43;0.70;;;;;;;;;;4381294;32;20165;-74
2021/03/05 10:40:18;;;;;;;4.33;0.70;;;;;;;;;;4400179;32;20174;-75
2021/03/05 10:42:44;;;;;;;1.70;0.67;;;;;;;;;;4381341;32;20611;-76
2021/03/05 10:45:10;;;;;;;2.97;0.80;;;;;;;;;;4398183;32;20173;-74
2021/03/05 10:47:45;;;;;;;3.97;0.70;;;;;;;;;;4376921;32;20197;-76
2021/03/05 10:50:11;;;;;;;4.60;0.70;;;;;;;;;;4376372;32;20161;-74
2021/03/05 10:52:36;;;;;;;1.83;0.80;;;;;;;;;;4390897;32;20176;-74
2021/03/05 10:55:01;;;;;;;3.00;0.70;;;;;;;;;;4374594;32;20167;-75
2021/03/05 10:57:27;;;;;;;3.97;0.87;;;;;;;;;;4370912;32;20162;-75
2021/03/05 10:59:52;;;;;;;4.67;0.77;;;;;;;;;;4376399;32;20162;-75
2021/03/05 11:02:18;;;;;;;2.47;0.60;;;;;;;;;;4390019;32;20157;-73
2021/03/05 11:04:43;;;;;;;5.23;1.00;;;;;;;;;;4376703;32;20166;-75
2021/03/05 11:07:09;;;;;;;1.20;0.57;;;;;;;;;;4389996;32;20207;-73
2021/03/05 11:09:34;;;;;;;3.00;0.70;;;;;;;;;;4389995;32;20250;-73
2021/03/05 11:11:59;;;;;;;5.60;1.20;;;;;;;;;;4376038;32;20189;-76
2021/03/05 11:14:26;;;;;;;3.57;0.93;;;;;;;;;;4376226;32;20158;-74
2021/03/05 11:16:53;;;;;;;5.20;0.90;;;;;;;;;;4370597;32;20202;-74
2021/03/05 11:19:18;;;;;;;4.97;0.80;;;;;;;;;;4376009;32;20173;-74
2021/03/05 11:21:44;;;;;;;4.27;1.00;;;;;;;;;;4389458;32;20131;-76
2021/03/05 11:24:17;;;;;;;2.57;0.80;;;;;;;;;;4378567;32;20170;-76
2021/03/05 11:26:42;;;;;;;2.67;0.70;;;;;;;;;;4376093;32;20173;-75
2021/03/05 11:29:08;;;;;;;2.43;0.70;;;;;;;;;;4375199;32;20185;-74
2021/03/05 11:31:33;;;;;;;2.77;1.07;;;;;;;;;;4381499;32;20607;-74
2021/03/05 11:33:59;;;;;;;2.37;0.80;;;;;;;;;;4366424;32;20166;-75
2021/03/05 11:36:24;;;;;;;3.60;0.80;;;;;;;;;;4375035;32;20204;-72
2021/03/05 11:38:50;;;;;;;4.87;1.00;;;;;;;;;;4375690;32;20510;-76
2021/03/05 11:41:16;;;;;;;2.58;0.80;;;;;;;;;;4389929;32;20143;-74
2021/03/05 11:43:47;;;;;;;2.00;0.60;;;;;;;;;;4375552;32;20669;-75
2021/03/05 11:46:12;;;;;;;2.75;0.82;;;;;;;;;;4375680;32;20188;-74
2021/03/05 11:48:40;;;;;;;2.62;0.70;;;;;;;;;;4389382;32;20146;-73
2021/03/05 11:51:08;;;;;;;4.20;0.93;;;;;;;;;;4388921;32;20206;-72
2021/03/05 11:53:34;;;;;;;3.08;0.70;;;;;;;;;;4389797;32;20158;-74
2021/03/05 11:55:59;;;;;;;2.85;0.73;;;;;;;;;;4389742;32;20543;-74
2021/03/05 11:58:24;;;;;;;2.10;0.70;;;;;;;;;;4375608;32;20161;-74
2021/03/05 12:00:50;;;;;;;3.58;0.90;;;;;;;;;;4375536;32;20171;-74
2021/03/05 12:03:15;;;;;;;11.35;1.20;;;;;;;;;;4389878;32;20143;-74
2021/03/05 12:05:41;;;;;;;1.87;0.73;;;;;;;;;;4375450;32;20258;-74
2021/03/05 12:08:06;;;;;;;2.65;0.80;;;;;;;;;;4375650;32;20174;-75
2021/03/05 12:10:31;;;;;;;5.35;0.85;;;;;;;;;;4389198;32;20169;-74
2021/03/05 12:12:56;;;;;;;2.47;0.62;;;;;;;;;;4388816;32;20588;-74
2021/03/05 12:15:22;;;;;;;5.65;0.85;;;;;;;;;;4396886;32;20149;-74
2021/03/05 12:17:47;;;;;;;3.42;0.90;;;;;;;;;;4390520;32;20191;-75
2021/03/05 12:20:13;;;;;;;3.17;0.70;;;;;;;;;;4387003;32;20163;-76
2021/03/05 12:22:39;;;;;;;4.45;0.90;;;;;;;;;;4389306;32;20196;-74
2021/03/05 12:25:04;;;;;;;3.08;0.73;;;;;;;;;;4388969;32;20142;-74
2021/03/05 12:27:39;;;;;;;4.95;0.80;;;;;;;;;;4375433;32;20169;-74
2021/03/05 12:30:07;;;;;;;4.97;0.90;;;;;;;;;;4375510;32;20204;-74
2021/03/05 12:32:32;;;;;;;3.08;0.77;;;;;;;;;;4389030;32;20161;-74
2021/03/05 12:34:57;;;;;;;3.53;0.90;;;;;;;;;;4378093;32;20516;-75
2021/03/05 12:37:22;;;;;;;3.25;0.70;;;;;;;;;;4378635;32;20176;-76
2021/03/05 12:39:48;;;;;;;3.65;0.93;;;;;;;;;;4392641;32;20135;-75
2021/03/05 12:42:13;;;;;;;2.42;0.70;;;;;;;;;;4391923;32;20127;-74
2021/03/05 12:44:38;;;;;;;3.22;0.82;;;;;;;;;;4392619;32;20150;-73
2021/03/05 12:47:04;;;;;;;2.78;0.65;;;;;;;;;;4378305;32;20237;-76
2021/03/05 12:49:29;;;;;;;3.33;0.77;;;;;;;;;;4391746;32;20202;-73
2021/03/05 12:51:54;;;;;;;3.53;0.70;;;;;;;;;;4377967;32;20660;-76
2021/03/05 12:54:19;;;;;;;3.37;0.80;;;;;;;;;;4377017;32;20166;-75
2021/03/05 12:56:45;;;;;;;5.25;1.00;;;;;;;;;;4392158;32;20150;-75
2021/03/05 12:59:10;;;;;;;5.28;0.88;;;;;;;;;;4378409;32;20170;-76
2021/03/05 13:01:36;;;;;;;5.10;0.73;;;;;;;;;;4379178;32;20729;-75
2021/03/05 13:04:01;;;;;;;5.18;0.80;;;;;;;;;;4378308;32;20198;-76
2021/03/05 13:06:26;;;;;;;6.12;1.00;;;;;;;;;;4378181;32;20154;-76
2021/03/05 13:08:51;;;;;;;2.92;0.73;;;;;;;;;;4378261;32;20569;-74
2021/03/05 13:11:17;;;;;;;1.75;0.70;;;;;;;;;;4378328;32;20159;-76
2021/03/05 13:13:42;;;;;;;3.65;1.00;;;;;;;;;;4378425;32;20216;-75
2021/03/05 13:16:07;;;;;;;6.22;1.42;;;;;;;;;;4377953;32;20249;-75
2021/03/05 13:18:32;;;;;;;2.30;0.50;;;;;;;;;;4378149;32;20163;-76
2021/03/05 13:21:01;;;;;;;3.17;0.85;;;;;;;;;;4378353;32;20167;-76
2021/03/05 13:23:26;;;;;;;4.45;0.82;;;;;;;;;;4378357;32;20158;-76
2021/03/05 13:25:52;;;;;;;1.55;0.60;;;;;;;;;;4378107;32;20158;-74
2021/03/05 13:28:18;;;;;;;4.97;0.60;;;;;;;;;;4382558;32;20248;-76
2021/03/05 13:30:43;;;;;;;4.32;0.75;;;;;;;;;;4406615;32;20479;-74
2021/03/05 13:33:09;;;;;;;2.00;1.00;;;;;;;;;;4391634;32;20154;-75
2021/03/05 13:35:34;;;;;;;2.83;0.70;;;;;;;;;;4390690;32;20240;-76
2021/03/05 13:37:59;;;;;;;2.92;1.23;;;;;;;;;;4392775;32;20177;-75
2021/03/05 13:40:24;;;;;;;3.12;0.73;;;;;;;;;;4406889;32;20145;-75
2021/03/05 13:42:50;;;;;;;5.78;0.80;;;;;;;;;;4392446;32;20297;-73
2021/03/05 13:45:38;;;;;;;2.95;0.80;;;;;;;;;;4391702;32;20170;-75
2021/03/05 13:48:04;;;;;;;4.70;1.00;;;;;;;;;;4383064;32;20212;-75
2021/03/05 13:50:29;;;;;;;3.67;0.88;;;;;;;;;;4405994;32;20126;-73
2021/03/05 13:52:54;;;;;;;1.57;0.50;;;;;;;;;;4392604;32;20235;-74
2021/03/05 13:55:19;;;;;;;3.05;0.70;;;;;;;;;;4392323;32;20331;-75
2021/03/05 13:57:47;;;;;;;3.87;1.00;;;;;;;;;;4406516;32;20476;-75
2021/03/05 14:00:15;;;;;;;3.05;0.90;;;;;;;;;;4392302;32;20196;-74
2021/03/05 14:02:41;;;;;;;4.68;0.75;;;;;;;;;;4392368;32;20229;-76
2021/03/05 14:05:06;;;;;;;2.80;0.88;;;;;;;;;;4393044;32;20161;-76
2021/03/05 14:07:32;;;;;;;2.53;0.90;;;;;;;;;;4388223;32;20251;-75
2021/03/05 14:09:58;;;;;;;2.90;0.62;;;;;;;;;;4390578;32;20169;-74
2021/03/05 14:12:23;;;;;;;3.85;0.70;;;;;;;;;;4391157;32;20130;-74
2021/03/05 14:15:08;;;;;;;3.55;0.80;;;;;;;;;;4377179;32;20579;-76
2021/03/05 14:17:34;;;;;;;3.42;0.98;;;;;;;;;;4370261;32;20166;-75
2021/03/05 14:19:59;;;;;;;2.67;0.82;;;;;;;;;;4404445;32;20658;-74
2021/03/05 14:22:25;;;;;;;3.50;0.80;;;;;;;;;;4391947;32;20176;-71
2021/03/05 14:24:50;;;;;;;3.17;0.93;;;;;;;;;;4404469;32;20547;-75
2021/03/05 14:27:18;;;;;;;3.72;1.00;;;;;;;;;;4391435;32;20634;-71
2021/03/05 14:29:44;;;;;;;6.95;1.20;;;;;;;;;;4391198;32;20253;-75
2021/03/05 14:32:09;;;;;;;5.05;1.00;;;;;;;;;;4389613;32;20173;-75
2021/03/05 14:34:34;;;;;;;6.20;1.08;;;;;;;;;;4393341;32;20211;-76
2021/03/05 14:37:00;;;;;;;2.55;1.05;;;;;;;;;;4392305;32;20176;-75